createdAt,value
2018-09-28T00:02:17.663Z,9.03
2018-09-28T00:04:45.779Z,8.00
2018-09-28T00:07:13.886Z,6.95
2018-09-28T00:09:41.977Z,7.50
2018-09-28T00:12:10.084Z,6.78
2018-09-28T00:14:38.200Z,7.43
2018-09-28T00:17:06.510Z,6.42
2018-09-28T00:19:34.600Z,5.90
2018-09-28T00:22:02.691Z,5.60
2018-09-28T00:24:30.783Z,5.83
2018-09-28T00:26:58.889Z,5.00
2018-09-28T00:29:27.004Z,5.70
2018-09-28T00:31:55.128Z,5.95
2018-09-28T00:34:23.233Z,5.83
2018-09-28T00:36:51.380Z,5.73
2018-09-28T00:39:19.476Z,6.10
2018-09-28T00:41:47.605Z,5.77
2018-09-28T00:44:15.724Z,5.53
2018-09-28T00:46:43.804Z,5.30
2018-09-28T00:49:11.946Z,4.93
2018-09-28T00:51:40.360Z,4.40
2018-09-28T00:54:08.473Z,4.80
2018-09-28T00:56:36.573Z,4.62
2018-09-28T00:59:04.673Z,4.27
2018-09-28T01:01:32.768Z,4.72
2018-09-28T01:04:00.856Z,3.83
2018-09-28T01:06:28.964Z,3.33
2018-09-28T01:08:57.069Z,3.35
2018-09-28T01:11:25.166Z,2.77
2018-09-28T01:13:53.264Z,3.00
2018-09-28T01:16:21.368Z,2.17
2018-09-28T01:18:49.468Z,2.30
2018-09-28T01:21:17.548Z,1.40
2018-09-28T01:23:45.658Z,2.17
2018-09-28T01:26:13.733Z,1.95
2018-09-28T01:28:41.876Z,2.07
2018-09-28T01:31:09.964Z,2.00
2018-09-28T01:33:38.068Z,2.40
2018-09-28T01:36:06.207Z,2.00
2018-09-28T01:38:34.280Z,1.72
2018-09-28T01:41:02.394Z,1.80
2018-09-28T01:43:30.528Z,1.87
2018-09-28T01:45:58.633Z,1.70
2018-09-28T01:48:26.768Z,1.97
2018-09-28T01:50:54.848Z,2.17
2018-09-28T01:53:22.938Z,1.60
2018-09-28T01:55:51.066Z,2.47
2018-09-28T01:58:19.146Z,1.80
2018-09-28T02:00:47.245Z,1.80
2018-09-28T02:03:15.341Z,2.00
2018-09-28T02:05:43.438Z,1.80
2018-09-28T02:08:11.544Z,1.80
2018-09-28T02:10:40.447Z,1.80
2018-09-28T02:13:08.592Z,2.00
2018-09-28T02:15:36.676Z,1.85
2018-09-28T02:18:04.762Z,2.58
2018-09-28T02:20:32.884Z,2.80
2018-09-28T02:23:01.000Z,2.12
2018-09-28T02:25:29.089Z,1.40
2018-09-28T02:27:57.194Z,1.83
2018-09-28T02:30:25.309Z,1.57
2018-09-28T02:32:53.437Z,1.87
2018-09-28T02:35:21.544Z,1.50
2018-09-28T02:37:49.872Z,1.90
2018-09-28T02:40:17.962Z,2.00
2018-09-28T02:42:46.056Z,1.83
2018-09-28T02:45:14.140Z,2.30
2018-09-28T02:47:42.481Z,1.70
2018-09-28T02:50:10.658Z,1.90
2018-09-28T02:52:38.765Z,2.10
2018-09-28T02:55:06.860Z,1.80
2018-09-28T02:57:34.970Z,2.37
2018-09-28T03:00:03.055Z,2.00
2018-09-28T03:02:31.156Z,2.10
2018-09-28T03:04:59.245Z,2.30
2018-09-28T03:07:27.329Z,2.30
2018-09-28T03:09:55.417Z,3.43
2018-09-28T03:12:23.504Z,2.80
2018-09-28T03:14:51.613Z,3.10
2018-09-28T03:17:19.692Z,3.10
2018-09-28T03:19:47.785Z,2.90
2018-09-28T03:22:15.863Z,2.10
2018-09-28T03:24:43.975Z,2.27
2018-09-28T03:27:12.069Z,2.50
2018-09-28T03:29:40.202Z,2.83
2018-09-28T03:32:08.287Z,2.27
2018-09-28T03:34:36.381Z,2.47
2018-09-28T03:37:04.580Z,3.30
2018-09-28T03:39:32.692Z,2.37
2018-09-28T03:42:00.770Z,4.10
2018-09-28T03:44:28.877Z,2.83
2018-09-28T03:46:56.957Z,3.40
2018-09-28T03:49:25.062Z,2.75
2018-09-28T03:51:53.147Z,2.80
2018-09-28T03:54:21.244Z,3.00
2018-09-28T03:56:49.345Z,2.80
2018-09-28T03:59:17.420Z,1.93
2018-09-28T04:01:45.539Z,2.07
2018-09-28T04:04:13.599Z,2.53
2018-09-28T04:06:41.710Z,2.80
2018-09-28T04:09:11.083Z,2.70
2018-09-28T04:11:39.172Z,2.85
2018-09-28T04:14:07.440Z,3.00
2018-09-28T04:16:35.637Z,2.72
2018-09-28T04:19:03.756Z,3.10
2018-09-28T04:21:31.896Z,2.50
2018-09-28T04:24:00.149Z,3.10
2018-09-28T04:26:28.256Z,2.80
2018-09-28T04:28:56.352Z,3.40
2018-09-28T04:31:24.463Z,2.80
2018-09-28T04:33:52.560Z,2.80
2018-09-28T04:36:20.656Z,3.03
2018-09-28T04:38:48.768Z,2.95
2018-09-28T04:41:16.834Z,3.87
2018-09-28T04:43:44.928Z,4.45
2018-09-28T04:46:13.045Z,2.73
2018-09-28T04:48:41.134Z,3.05
2018-09-28T04:51:09.223Z,3.50
2018-09-28T04:53:37.479Z,3.57
2018-09-28T04:56:05.564Z,2.50
2018-09-28T04:58:33.674Z,3.17
2018-09-28T05:01:01.792Z,2.63
2018-09-28T05:03:29.898Z,2.60
2018-09-28T05:05:57.978Z,3.60
2018-09-28T05:08:26.061Z,2.90
2018-09-28T05:10:54.173Z,2.47
2018-09-28T05:13:22.266Z,3.17
2018-09-28T05:15:50.344Z,4.00
2018-09-28T05:18:18.464Z,3.10
2018-09-28T05:20:46.574Z,4.50
2018-09-28T05:23:14.653Z,2.62
2018-09-28T05:25:42.776Z,2.70
2018-09-28T05:28:10.888Z,2.97
2018-09-28T05:30:44.972Z,3.60
2018-09-28T05:33:07.145Z,3.00
2018-09-28T05:35:35.160Z,3.20
2018-09-28T05:38:03.241Z,2.67
2018-09-28T05:40:31.346Z,3.67
2018-09-28T05:42:59.441Z,3.50
2018-09-28T05:45:27.561Z,3.87
2018-09-28T05:47:55.693Z,2.70
2018-09-28T05:50:23.810Z,3.07
2018-09-28T05:52:51.921Z,3.17
2018-09-28T05:55:20.031Z,3.20
2018-09-28T05:57:51.589Z,3.00
2018-09-28T06:00:25.023Z,2.87
2018-09-28T06:02:58.511Z,2.72
2018-09-28T06:05:33.201Z,2.70
2018-09-28T06:08:02.312Z,3.43
2018-09-28T06:10:30.420Z,2.33
2018-09-28T06:12:58.540Z,2.97
2018-09-28T06:15:26.641Z,3.20
2018-09-28T06:17:54.796Z,3.00
2018-09-28T06:20:22.828Z,2.73
2018-09-28T06:22:50.909Z,2.17
2018-09-28T06:25:19.000Z,3.03
2018-09-28T06:27:47.102Z,2.95
2018-09-28T06:30:15.199Z,4.20
2018-09-28T06:32:43.264Z,3.25
2018-09-28T06:35:11.357Z,2.30
2018-09-28T06:37:39.484Z,3.00
2018-09-28T06:40:07.713Z,2.60
2018-09-28T06:42:35.892Z,3.80
2018-09-28T06:45:03.998Z,2.13
2018-09-28T06:47:32.080Z,2.53
2018-09-28T06:50:00.212Z,3.30
2018-09-28T06:52:28.634Z,2.77
2018-09-28T06:54:56.729Z,4.27
2018-09-28T06:57:24.844Z,3.53
2018-09-28T06:59:52.999Z,3.40
2018-09-28T07:02:21.127Z,2.80
2018-09-28T07:04:49.227Z,2.87
2018-09-28T07:07:17.360Z,3.20
2018-09-28T07:09:45.437Z,2.97
2018-09-28T07:12:13.579Z,4.20
2018-09-28T07:14:41.588Z,1.80
2018-09-28T07:17:09.688Z,2.30
2018-09-28T07:19:37.821Z,1.87
2018-09-28T07:22:06.033Z,2.27
2018-09-28T07:24:34.174Z,2.50
2018-09-28T07:27:02.268Z,2.67
2018-09-28T07:29:30.364Z,3.10
2018-09-28T07:31:58.481Z,2.67
2018-09-28T07:34:26.582Z,2.70
2018-09-28T07:36:54.744Z,2.53
2018-09-28T07:39:22.805Z,3.30
2018-09-28T07:41:50.949Z,2.13
2018-09-28T07:44:18.956Z,2.60
2018-09-28T07:46:47.063Z,2.97
2018-09-28T07:49:15.200Z,2.50
2018-09-28T07:51:43.274Z,3.42
2018-09-28T07:54:11.410Z,2.40
2018-09-28T07:56:39.505Z,3.12
2018-09-28T07:59:07.612Z,2.47
2018-09-28T08:01:35.740Z,2.70
2018-09-28T08:04:03.868Z,2.80
2018-09-28T08:06:31.950Z,2.70
2018-09-28T08:09:00.053Z,2.50
2018-09-28T08:11:28.151Z,2.60
2018-09-28T08:13:56.274Z,2.52
2018-09-28T08:16:24.341Z,2.50
2018-09-28T08:18:52.404Z,2.03
2018-09-28T08:21:20.489Z,2.30
2018-09-28T08:23:48.602Z,2.80
2018-09-28T08:26:16.691Z,2.43
2018-09-28T08:28:44.776Z,2.10
2018-09-28T08:31:12.880Z,2.83
2018-09-28T08:33:41.617Z,1.65
2018-09-28T08:36:09.774Z,1.90
2018-09-28T08:38:37.847Z,1.95
2018-09-28T08:41:05.985Z,2.80
2018-09-28T08:43:34.130Z,2.00
2018-09-28T08:46:02.216Z,3.00
2018-09-28T08:48:30.377Z,2.80
2018-09-28T08:50:58.448Z,2.20
2018-09-28T08:53:26.534Z,2.57
2018-09-28T08:55:54.682Z,2.10
2018-09-28T08:58:22.721Z,2.63
2018-09-28T09:00:50.840Z,1.70
2018-09-28T09:03:18.957Z,2.50
2018-09-28T09:05:47.056Z,2.23
2018-09-28T09:08:15.145Z,2.53
2018-09-28T09:10:43.250Z,2.33
2018-09-28T09:13:11.352Z,2.10
2018-09-28T09:15:39.443Z,3.10
2018-09-28T09:18:07.591Z,2.53
2018-09-28T09:20:35.661Z,1.87
2018-09-28T09:23:03.748Z,1.80
2018-09-28T09:25:31.854Z,2.17
2018-09-28T09:27:59.946Z,1.60
2018-09-28T09:30:28.026Z,2.10
2018-09-28T09:32:56.104Z,3.65
2018-09-28T09:35:24.253Z,2.03
2018-09-28T09:37:52.352Z,2.50
2018-09-28T09:40:20.557Z,2.37
2018-09-28T09:42:48.678Z,2.05
2018-09-28T09:45:16.769Z,2.05
2018-09-28T09:47:44.879Z,1.95
2018-09-28T09:50:13.130Z,2.02
2018-09-28T09:52:41.228Z,2.58
2018-09-28T09:55:09.390Z,2.37
2018-09-28T09:57:37.609Z,1.70
2018-09-28T10:00:05.949Z,2.35
2018-09-28T10:02:39.421Z,2.60
2018-09-28T10:05:07.480Z,1.80
2018-09-28T10:07:35.585Z,2.47
2018-09-28T10:10:03.681Z,1.67
2018-09-28T10:12:31.876Z,1.73
2018-09-28T10:14:59.908Z,2.20
2018-09-28T10:17:28.011Z,1.70
2018-09-28T10:19:56.112Z,2.07
2018-09-28T10:22:24.168Z,1.93
2018-09-28T10:24:52.268Z,2.17
2018-09-28T10:27:20.399Z,2.03
2018-09-28T10:29:48.448Z,2.27
2018-09-28T10:34:50.983Z,1.80
2018-09-28T10:37:18.981Z,1.60
2018-09-28T10:39:47.177Z,2.30
2018-09-28T10:42:15.197Z,2.47
2018-09-28T10:44:43.327Z,1.63
2018-09-28T10:47:11.372Z,1.90
2018-09-28T10:49:39.480Z,1.63
2018-09-28T10:52:08.032Z,1.53
2018-09-28T10:54:36.236Z,1.98
2018-09-28T10:57:04.397Z,2.10
2018-09-28T10:59:32.513Z,2.23
2018-09-28T11:02:00.592Z,1.90
2018-09-28T11:04:28.709Z,2.17
2018-09-28T11:06:56.820Z,1.60
2018-09-28T11:09:24.962Z,1.80
2018-09-28T11:11:53.068Z,1.55
2018-09-28T11:14:21.177Z,2.60
2018-09-28T11:16:49.293Z,2.05
2018-09-28T11:19:17.381Z,2.50
2018-09-28T11:21:45.560Z,2.52
2018-09-28T11:24:13.600Z,2.20
2018-09-28T11:26:41.713Z,1.90
2018-09-28T11:29:09.824Z,2.30
2018-09-28T11:31:37.949Z,1.60
2018-09-28T11:34:06.033Z,1.90
2018-09-28T11:36:34.153Z,1.93
2018-09-28T11:39:02.354Z,1.90
2018-09-28T11:41:30.480Z,1.57
2018-09-28T11:43:58.592Z,2.22
2018-09-28T11:46:26.720Z,2.20
2018-09-28T11:48:54.852Z,1.98
2018-09-28T11:51:23.033Z,2.42
2018-09-28T11:53:51.079Z,2.62
2018-09-28T11:56:19.192Z,1.80
2018-09-28T11:58:47.313Z,1.50
2018-09-28T12:01:15.393Z,1.93
2018-09-28T12:03:43.797Z,1.87
2018-09-28T12:06:11.898Z,1.90
2018-09-28T12:08:39.987Z,1.73
2018-09-28T12:11:08.174Z,2.05
2018-09-28T12:13:36.229Z,2.20
2018-09-28T12:16:04.308Z,1.40
2018-09-28T12:18:32.509Z,2.03
2018-09-28T12:21:00.736Z,2.50
2018-09-28T12:23:28.893Z,1.80
2018-09-28T12:25:57.109Z,2.10
2018-09-28T12:28:25.231Z,1.52
2018-09-28T12:30:53.330Z,1.63
2018-09-28T12:33:21.505Z,1.80
2018-09-28T12:35:49.573Z,1.53
2018-09-28T12:38:17.651Z,1.53
2018-09-28T12:40:45.776Z,1.15
2018-09-28T12:43:13.884Z,1.30
2018-09-28T12:45:42.068Z,1.57
2018-09-28T12:48:10.174Z,1.60
2018-09-28T12:50:38.257Z,1.25
2018-09-28T12:53:06.413Z,1.50
2018-09-28T12:55:34.505Z,1.40
2018-09-28T12:58:02.612Z,1.73
2018-09-28T13:00:30.787Z,1.70
2018-09-28T13:02:58.842Z,1.57
2018-09-28T13:05:26.981Z,2.90
2018-09-28T13:07:55.053Z,1.53
2018-09-28T13:10:23.200Z,1.63
2018-09-28T13:12:51.392Z,1.27
2018-09-28T13:15:19.429Z,1.60
2018-09-28T13:17:47.524Z,1.27
2018-09-28T13:20:15.716Z,1.60
2018-09-28T13:22:43.766Z,1.50
2018-09-28T13:25:11.865Z,1.50
2018-09-28T13:27:39.971Z,1.80
2018-09-28T13:30:08.080Z,2.00
2018-09-28T13:32:36.184Z,2.33
2018-09-28T13:35:04.312Z,1.93
2018-09-28T13:37:32.415Z,1.80
2018-09-28T13:40:00.515Z,1.90
2018-09-28T13:42:28.615Z,1.90
2018-09-28T13:44:56.741Z,2.40
2018-09-28T13:47:24.836Z,1.95
2018-09-28T13:49:53.052Z,1.95
2018-09-28T13:52:21.184Z,1.80
2018-09-28T13:54:49.389Z,2.17
2018-09-28T13:57:17.324Z,1.57
2018-09-28T13:59:45.418Z,2.03
2018-09-28T14:02:13.534Z,1.63
2018-09-28T14:04:41.807Z,2.00
2018-09-28T14:07:10.124Z,1.67
2018-09-28T14:09:38.068Z,2.00
2018-09-28T14:12:06.193Z,1.53
2018-09-28T14:14:34.318Z,1.50
2018-09-28T14:17:02.385Z,1.83
2018-09-28T14:19:30.519Z,1.70
2018-09-28T14:21:58.649Z,1.20
2018-09-28T14:24:26.750Z,1.57
2018-09-28T14:26:54.846Z,1.50
2018-09-28T14:29:22.949Z,1.90
2018-09-28T14:31:51.055Z,1.50
2018-09-28T14:34:19.208Z,1.80
2018-09-28T14:36:47.383Z,1.43
2018-09-28T14:39:15.451Z,1.80
2018-09-28T14:41:43.603Z,1.98
2018-09-28T14:44:11.725Z,1.37
2018-09-28T14:46:39.844Z,1.27
2018-09-28T14:49:08.027Z,3.15
2018-09-28T14:51:36.073Z,1.92
2018-09-28T14:54:04.258Z,1.57
2018-09-28T14:56:32.344Z,2.58
2018-09-28T14:59:00.439Z,1.70
2018-09-28T15:01:28.681Z,1.57
2018-09-28T15:03:56.658Z,1.70
2018-09-28T15:06:24.849Z,1.42
2018-09-28T15:08:52.894Z,1.82
2018-09-28T15:11:21.157Z,1.13
2018-09-28T15:13:49.250Z,1.92
2018-09-28T15:16:17.395Z,1.73
2018-09-28T15:18:45.493Z,2.40
2018-09-28T15:21:13.605Z,1.80
2018-09-28T15:23:42.097Z,1.83
2018-09-28T15:26:10.217Z,1.90
2018-09-28T15:28:38.332Z,1.90
2018-09-28T15:31:06.749Z,1.77
2018-09-28T15:33:34.842Z,1.83
2018-09-28T15:36:02.941Z,1.70
2018-09-28T15:38:31.100Z,2.10
2018-09-28T15:40:59.228Z,1.30
2018-09-28T15:43:27.331Z,1.77
2018-09-28T15:45:55.437Z,1.52
2018-09-28T15:48:23.563Z,2.08
2018-09-28T15:50:51.664Z,1.67
2018-09-28T15:53:19.760Z,2.10
2018-09-28T15:55:47.890Z,1.83
2018-09-28T15:58:16.086Z,1.83
2018-09-28T16:00:44.202Z,1.40
2018-09-28T16:03:12.312Z,1.87
2018-09-28T16:05:40.450Z,1.43
2018-09-28T16:08:08.561Z,1.80
2018-09-28T16:10:36.672Z,1.67
2018-09-28T16:15:39.240Z,1.90
2018-09-28T16:18:07.320Z,2.20
2018-09-28T16:20:35.436Z,1.90
2018-09-28T16:23:03.552Z,1.73
2018-09-28T16:25:31.678Z,1.40
2018-09-28T16:27:59.786Z,1.80
2018-09-28T16:30:27.884Z,2.13
2018-09-28T16:32:55.985Z,1.73
2018-09-28T16:35:24.093Z,2.00
2018-09-28T16:37:52.200Z,2.30
2018-09-28T16:40:20.292Z,2.77
2018-09-28T16:42:48.408Z,1.90
2018-09-28T16:45:16.511Z,1.73
2018-09-28T16:47:44.594Z,1.90
2018-09-28T16:50:12.671Z,2.30
2018-09-28T16:52:40.776Z,2.03
2018-09-28T16:55:08.861Z,1.87
2018-09-28T16:57:36.931Z,2.37
2018-09-28T17:00:05.111Z,1.77
2018-09-28T17:02:33.188Z,1.60
2018-09-28T17:05:01.269Z,2.00
2018-09-28T17:07:29.403Z,2.10
2018-09-28T17:09:57.516Z,1.45
2018-09-28T17:12:25.570Z,1.67
2018-09-28T17:14:53.676Z,1.93
2018-09-28T17:17:21.789Z,2.10
2018-09-28T17:19:49.874Z,1.73
2018-09-28T17:22:17.975Z,1.53
2018-09-28T17:24:46.135Z,1.90
2018-09-28T17:27:14.232Z,1.50
2018-09-28T17:29:42.309Z,2.50
2018-09-28T17:32:11.340Z,2.20
2018-09-28T17:34:39.471Z,2.10
2018-09-28T17:37:07.564Z,1.87
2018-09-28T17:39:35.648Z,2.17
2018-09-28T17:42:03.741Z,1.90
2018-09-28T17:44:31.808Z,1.80
2018-09-28T17:46:59.877Z,1.90
2018-09-28T17:49:27.969Z,2.13
2018-09-28T17:51:56.069Z,2.12
2018-09-28T17:54:24.152Z,3.10
2018-09-28T17:56:52.253Z,2.50
2018-09-28T17:59:20.356Z,2.73
2018-09-28T18:01:48.468Z,2.50
2018-09-28T18:04:16.580Z,4.17
2018-09-28T18:06:44.661Z,3.27
2018-09-28T18:09:13.296Z,3.50
2018-09-28T18:11:41.421Z,3.03
2018-09-28T18:14:09.677Z,3.67
2018-09-28T18:16:37.657Z,2.67
2018-09-28T18:19:05.832Z,3.00
2018-09-28T18:21:33.904Z,2.93
2018-09-28T18:24:02.021Z,2.77
2018-09-28T18:26:30.141Z,2.27
2018-09-28T18:28:58.265Z,2.67
2018-09-28T18:31:26.476Z,2.50
2018-09-28T18:33:54.564Z,3.20
2018-09-28T18:36:22.669Z,2.93
2018-09-28T18:38:50.757Z,2.47
2018-09-28T18:41:18.876Z,3.40
2018-09-28T18:43:46.969Z,2.70
2018-09-28T18:46:15.533Z,2.17
2018-09-28T18:48:43.637Z,3.02
2018-09-28T18:51:11.722Z,2.93
2018-09-28T18:53:40.367Z,2.67
2018-09-28T18:56:08.464Z,3.13
2018-09-28T18:58:36.575Z,1.87
2018-09-28T19:01:04.661Z,2.60
2018-09-28T19:03:32.753Z,1.90
2018-09-28T19:06:00.948Z,1.83
2018-09-28T19:08:28.974Z,2.20
2018-09-28T19:10:57.089Z,2.90
2018-09-28T19:13:25.164Z,3.10
2018-09-28T19:15:53.270Z,2.35
2018-09-28T19:18:21.357Z,2.07
2018-09-28T19:20:49.446Z,2.22
2018-09-28T19:23:17.586Z,2.65
2018-09-28T19:25:45.684Z,2.40
2018-09-28T19:28:13.740Z,2.30
2018-09-28T19:30:42.408Z,2.50
2018-09-28T19:33:10.493Z,2.25
2018-09-28T19:35:38.590Z,2.40
2018-09-28T19:38:06.676Z,2.45
2018-09-28T19:40:34.872Z,2.27
2018-09-28T19:43:03.033Z,2.60
2018-09-28T19:45:31.131Z,2.75
2018-09-28T19:47:59.206Z,2.40
2018-09-28T19:50:27.292Z,2.30
2018-09-28T19:52:55.392Z,3.80
2018-09-28T19:55:23.497Z,4.50
2018-09-28T19:57:51.625Z,2.87
2018-09-28T20:00:19.712Z,4.15
2018-09-28T20:02:47.805Z,2.40
2018-09-28T20:05:15.917Z,2.73
2018-09-28T20:07:44.008Z,2.90
2018-09-28T20:10:12.120Z,2.73
2018-09-28T20:12:40.197Z,2.10
2018-09-28T20:15:08.356Z,2.57
2018-09-28T20:17:36.445Z,2.03
2018-09-28T20:20:04.524Z,3.20
2018-09-28T20:22:32.627Z,2.77
2018-09-28T20:25:00.757Z,2.30
2018-09-28T20:27:28.832Z,2.00
2018-09-28T20:29:56.908Z,2.40
2018-09-28T20:32:25.065Z,2.27
2018-09-28T20:34:53.210Z,2.10
2018-09-28T20:37:21.280Z,2.00
2018-09-28T20:39:49.380Z,2.00
2018-09-28T20:42:17.477Z,2.20
2018-09-28T20:44:45.641Z,3.07
2018-09-28T20:47:14.069Z,3.00
2018-09-28T20:49:42.343Z,2.62
2018-09-28T20:52:10.414Z,2.37
2018-09-28T20:54:38.523Z,2.60
2018-09-28T20:57:06.604Z,2.37
2018-09-28T20:59:34.696Z,3.47
2018-09-28T21:02:02.800Z,2.10
2018-09-28T21:04:30.877Z,2.67
2018-09-28T21:06:58.999Z,2.30
2018-09-28T21:09:27.087Z,3.20
2018-09-28T21:11:55.181Z,2.05
2018-09-28T21:14:23.261Z,2.10
2018-09-28T21:16:51.365Z,2.30
2018-09-28T21:19:19.424Z,2.60
2018-09-28T21:21:47.529Z,2.60
2018-09-28T21:24:15.621Z,2.67
2018-09-28T21:26:43.692Z,3.50
2018-09-28T21:29:11.760Z,2.07
2018-09-28T21:31:39.853Z,2.50
2018-09-28T21:34:07.968Z,2.50
2018-09-28T21:36:36.057Z,2.20
2018-09-28T21:39:05.712Z,3.50
2018-09-28T21:41:33.792Z,2.90
2018-09-28T21:44:01.908Z,2.62
2018-09-28T21:46:29.995Z,3.02
2018-09-28T21:48:58.081Z,2.40
2018-09-28T21:51:26.152Z,2.30
2018-09-28T21:53:54.260Z,3.00
2018-09-28T21:56:22.344Z,3.15
2018-09-28T21:58:50.420Z,3.50
2018-09-28T22:01:19.649Z,3.77
2018-09-28T22:03:49.159Z,2.70
2018-09-28T22:06:17.273Z,2.60
2018-09-28T22:08:45.621Z,2.13
2018-09-28T22:11:14.004Z,2.27
2018-09-28T22:13:42.311Z,2.27
2018-09-28T22:16:10.406Z,2.60
2018-09-28T22:18:38.513Z,2.13
2018-09-28T22:21:06.647Z,2.37
2018-09-28T22:23:34.737Z,2.37
2018-09-28T22:26:02.819Z,2.67
2018-09-28T22:28:30.888Z,2.30
2018-09-28T22:30:58.979Z,2.80
2018-09-28T22:33:27.180Z,3.03
2018-09-28T22:35:55.288Z,3.00
2018-09-28T22:38:23.400Z,3.13
2018-09-28T22:40:51.532Z,3.10
2018-09-28T22:43:19.640Z,2.50
2018-09-28T22:45:47.717Z,2.90
2018-09-28T22:48:15.776Z,2.43
2018-09-28T22:50:43.859Z,2.93
2018-09-28T22:53:11.962Z,3.30
2018-09-28T22:55:40.076Z,2.70
2018-09-28T22:58:08.164Z,2.53
2018-09-28T23:00:36.261Z,2.20
2018-09-28T23:03:04.354Z,2.65
2018-09-28T23:05:32.446Z,2.73
2018-09-28T23:08:00.564Z,2.83
2018-09-28T23:10:28.713Z,2.17
2018-09-28T23:12:56.769Z,2.20
2018-09-28T23:15:24.847Z,2.20
2018-09-28T23:17:52.945Z,2.47
2018-09-28T23:20:21.139Z,2.70
2018-09-28T23:22:49.220Z,2.80
2018-09-28T23:25:17.315Z,2.93
2018-09-28T23:27:45.409Z,2.35
2018-09-28T23:30:13.500Z,4.08
2018-09-28T23:32:41.621Z,2.65
2018-09-28T23:35:09.720Z,2.73
2018-09-28T23:37:37.832Z,2.60
2018-09-28T23:40:06.113Z,3.15
2018-09-28T23:42:34.216Z,5.23
2018-09-28T23:45:02.328Z,2.80
2018-09-28T23:47:30.420Z,2.70
2018-09-28T23:49:58.517Z,2.87
2018-09-28T23:52:27.432Z,2.50
2018-09-28T23:54:55.537Z,2.53
2018-09-28T23:57:23.621Z,3.57
2018-09-28T23:59:51.696Z,2.80
